Time;durP1;ratioP1;P1;durP2;ratioP2;P2;SDS_P1;SDS_P2;PMS_P1;PMS_P2;Temp;Humidity;BMP_temperature;BMP_pressure;BME280_temperature;BME280_humidity;BME280_pressure;Samples;Min_cycle;Max_cycle;Signal;HPM_P1;HPM_P2
2023/06/05 00:01:13;;;;;;;7.60;2.30;;;15.00;99.90;;;;;;4967315;28;20428;-67
2023/06/05 00:03:39;;;;;;;7.93;1.95;;;15.00;99.90;;;;;;4964750;28;20498;-67
2023/06/05 00:06:10;;;;;;;7.90;2.92;;;14.90;99.90;;;;;;4968819;28;20776;-67
2023/06/05 00:08:36;;;;;;;6.60;2.33;;;14.90;99.90;;;;;;4969075;28;20447;-68
2023/06/05 00:11:01;;;;;;;7.23;2.10;;;14.90;99.90;;;;;;4968119;28;20409;-67
2023/06/05 00:13:28;;;;;;;6.30;1.83;;;14.90;99.90;;;;;;4965086;28;20467;-67
2023/06/05 00:15:54;;;;;;;7.32;2.30;;;14.90;99.90;;;;;;4966900;28;20530;-67
2023/06/05 00:18:20;;;;;;;7.43;2.10;;;14.80;99.90;;;;;;4966386;28;20493;-68
2023/06/05 00:20:46;;;;;;;6.32;1.85;;;14.80;99.90;;;;;;4956906;28;20434;-68
2023/06/05 00:23:11;;;;;;;8.10;1.90;;;14.90;99.90;;;;;;4967364;28;20396;-68
2023/06/05 00:25:37;;;;;;;5.80;1.93;;;14.90;99.90;;;;;;4971485;28;20400;-67
2023/06/05 00:28:03;;;;;;;7.15;2.30;;;14.90;99.90;;;;;;4974678;28;20427;-68
2023/06/05 00:30:28;;;;;;;7.43;2.40;;;14.90;99.90;;;;;;4974546;28;20424;-67
2023/06/05 00:32:55;;;;;;;7.03;2.10;;;14.90;99.90;;;;;;4971734;28;20410;-67
2023/06/05 00:35:21;;;;;;;6.20;1.88;;;14.80;99.90;;;;;;4971041;28;20540;-67
2023/06/05 00:37:46;;;;;;;6.77;2.30;;;14.90;99.90;;;;;;4968491;28;20438;-68
2023/06/05 00:40:13;;;;;;;6.83;2.17;;;14.80;99.90;;;;;;4969037;28;20400;-68
2023/06/05 00:42:38;;;;;;;7.20;2.20;;;14.70;99.90;;;;;;4968541;28;20511;-67
2023/06/05 00:45:04;;;;;;;8.55;2.50;;;14.70;99.90;;;;;;4968755;28;20413;-67
2023/06/05 00:47:32;;;;;;;6.28;1.90;;;14.80;99.90;;;;;;4970826;28;20507;-67
2023/06/05 00:49:58;;;;;;;6.75;2.38;;;14.80;99.90;;;;;;4969187;28;20403;-68
2023/06/05 00:52:24;;;;;;;6.05;2.03;;;14.80;99.90;;;;;;4965307;28;20508;-68
2023/06/05 00:54:50;;;;;;;9.00;2.17;;;14.80;99.90;;;;;;4964494;28;20442;-67
2023/06/05 00:57:15;;;;;;;7.43;2.30;;;14.70;99.90;;;;;;4967480;28;20400;-67
2023/06/05 00:59:44;;;;;;;6.93;2.20;;;14.60;99.90;;;;;;4966828;28;20474;-67
2023/06/05 01:02:13;;;;;;;6.40;1.80;;;14.60;99.90;;;;;;4952266;28;20427;-67
2023/06/05 01:04:43;;;;;;;6.88;2.20;;;14.60;99.90;;;;;;4970094;28;20506;-67
2023/06/05 01:07:10;;;;;;;9.82;2.30;;;14.60;99.90;;;;;;4969030;28;20565;-67
2023/06/05 01:09:37;;;;;;;7.25;2.10;;;14.50;99.90;;;;;;4968354;28;20849;-69
2023/06/05 01:12:17;;;;;;;6.53;1.87;;;14.50;99.90;;;;;;4968135;28;20380;-68
2023/06/05 01:14:48;;;;;;;7.30;2.10;;;14.50;99.90;;;;;;4947515;28;20489;-68
2023/06/05 01:17:14;;;;;;;6.95;2.00;;;14.40;99.90;;;;;;4948397;28;20507;-68
2023/06/05 01:19:40;;;;;;;6.70;2.05;;;14.40;99.90;;;;;;4970033;28;20410;-68
2023/06/05 01:22:05;;;;;;;7.80;2.10;;;14.40;99.90;;;;;;4965936;28;20417;-68
2023/06/05 01:24:32;;;;;;;7.70;2.20;;;14.40;99.90;;;;;;4969247;28;20415;-68
2023/06/05 01:27:17;;;;;;;7.10;2.28;;;14.30;99.90;;;;;;4964862;28;20436;-68
2023/06/05 01:29:57;;;;;;;8.07;2.70;;;14.20;99.90;;;;;;4966298;28;21043;-68
2023/06/05 01:32:36;;;;;;;8.03;2.30;;;14.10;99.90;;;;;;4968337;28;20473;-68
2023/06/05 01:35:06;;;;;;;6.95;2.22;;;14.10;99.90;;;;;;4967212;28;20403;-68
2023/06/05 01:37:40;;;;;;;10.25;2.33;;;14.00;99.90;;;;;;4966088;28;20469;-68
2023/06/05 01:40:19;;;;;;;7.30;2.33;;;14.00;99.90;;;;;;4967384;28;20425;-68
2023/06/05 01:42:46;;;;;;;9.07;2.30;;;13.90;99.90;;;;;;4967659;28;20398;-68
2023/06/05 01:45:13;;;;;;;6.88;2.40;;;13.80;99.90;;;;;;4968636;28;20414;-68
2023/06/05 01:47:39;;;;;;;7.13;2.38;;;13.80;99.90;;;;;;4965106;28;20551;-68
2023/06/05 01:50:07;;;;;;;6.82;2.30;;;13.90;99.90;;;;;;4966088;28;20422;-68
2023/06/05 01:52:34;;;;;;;7.13;2.28;;;13.90;99.90;;;;;;4968519;28;20969;-69
2023/06/05 01:55:03;;;;;;;7.50;2.30;;;13.90;99.90;;;;;;4963972;28;20407;-69
2023/06/05 01:57:29;;;;;;;9.73;2.20;;;13.90;99.90;;;;;;4963885;28;20465;-68
2023/06/05 01:59:55;;;;;;;6.88;2.47;;;13.80;99.90;;;;;;4965492;28;20442;-69
2023/06/05 02:02:21;;;;;;;7.87;2.00;;;13.70;99.90;;;;;;4967762;28;20414;-68
2023/06/05 02:04:49;;;;;;;7.78;2.70;;;13.70;99.90;;;;;;4972809;28;20435;-68
2023/06/05 02:07:15;;;;;;;6.88;2.40;;;13.70;99.90;;;;;;4977833;28;20531;-68
2023/06/05 02:09:41;;;;;;;7.17;2.50;;;13.60;99.90;;;;;;4975378;28;20436;-68
2023/06/05 02:12:07;;;;;;;7.75;2.60;;;13.60;99.90;;;;;;4976906;28;20388;-68
2023/06/05 02:14:35;;;;;;;7.55;2.70;;;13.60;99.90;;;;;;4970949;28;20423;-68
2023/06/05 02:17:05;;;;;;;6.65;2.10;;;13.50;99.90;;;;;;4972724;28;21897;-68
2023/06/05 02:19:34;;;;;;;7.22;2.50;;;13.40;99.90;;;;;;4947007;28;20973;-68
2023/06/05 02:22:00;;;;;;;11.80;2.80;;;13.30;99.90;;;;;;4971568;28;20505;-68
2023/06/05 02:24:26;;;;;;;9.40;2.70;;;13.30;99.90;;;;;;4973258;28;20457;-68
2023/06/05 02:26:52;;;;;;;6.80;2.30;;;13.20;99.90;;;;;;4968525;28;21020;-68
2023/06/05 02:29:18;;;;;;;7.93;2.60;;;13.10;1.00;;;;;;4971272;28;20406;-68
2023/06/05 02:31:43;;;;;;;7.23;2.57;;;13.00;1.00;;;;;;4968766;28;20469;-68
2023/06/05 02:34:09;;;;;;;8.25;2.80;;;12.90;1.00;;;;;;4971389;28;20991;-68
2023/06/05 02:36:35;;;;;;;8.47;2.60;;;12.90;1.00;;;;;;4966988;28;20734;-68
2023/06/05 02:39:03;;;;;;;7.97;2.42;;;12.90;1.00;;;;;;4971090;28;20411;-68
2023/06/05 02:41:28;;;;;;;8.35;2.38;;;12.80;1.00;;;;;;4969694;28;20825;-68
2023/06/05 02:43:54;;;;;;;6.90;2.40;;;12.80;1.00;;;;;;4970745;28;20456;-68
2023/06/05 02:46:21;;;;;;;7.32;2.30;;;12.80;1.00;;;;;;4969789;28;20437;-67
2023/06/05 02:48:47;;;;;;;7.30;2.60;;;12.80;1.00;;;;;;4969220;28;20408;-68
2023/06/05 02:51:12;;;;;;;7.60;2.40;;;12.80;1.00;;;;;;4968606;28;20450;-69
2023/06/05 02:53:38;;;;;;;7.60;2.78;;;12.70;1.00;;;;;;4968439;28;20420;-68
2023/06/05 02:56:04;;;;;;;7.43;2.65;;;12.70;1.00;;;;;;4970723;28;20412;-68
2023/06/05 02:58:33;;;;;;;8.63;2.60;;;12.50;1.00;;;;;;4969952;28;20467;-68
2023/06/05 03:01:01;;;;;;;7.85;2.80;;;12.50;1.00;;;;;;4971373;28;20807;-68
2023/06/05 03:03:29;;;;;;;8.02;2.90;;;12.50;1.00;;;;;;4972396;28;20400;-68
2023/06/05 03:06:04;;;;;;;7.80;2.60;;;12.40;1.00;;;;;;4975521;28;20543;-68
2023/06/05 03:08:34;;;;;;;6.60;2.53;;;12.40;1.00;;;;;;4974720;28;20943;-68
2023/06/05 03:11:01;;;;;;;7.35;2.88;;;12.40;1.00;;;;;;4956944;28;20895;-68
2023/06/05 03:13:27;;;;;;;6.60;2.40;;;12.40;1.00;;;;;;4974618;28;20428;-68
2023/06/05 03:15:56;;;;;;;8.52;2.78;;;12.50;1.00;;;;;;4989043;28;20418;-68
2023/06/05 03:18:25;;;;;;;7.28;2.60;;;12.40;1.00;;;;;;4995342;28;20415;-68
2023/06/05 03:20:54;;;;;;;7.07;2.60;;;12.30;18.60;;;;;;4992572;28;20407;-68
2023/06/05 03:23:27;;;;;;;8.07;2.80;;;12.30;46.00;;;;;;4987191;28;20428;-68
2023/06/05 03:25:53;;;;;;;7.10;2.60;;;12.40;25.20;;;;;;4969088;28;20434;-68
2023/06/05 03:28:20;;;;;;;8.15;2.80;;;12.30;1.00;;;;;;4970414;28;20893;-68
2023/06/05 03:30:46;;;;;;;7.10;2.70;;;12.30;87.10;;;;;;4970483;28;20443;-68
2023/06/05 03:33:13;;;;;;;7.70;2.70;;;12.20;99.90;;;;;;4971967;28;20407;-68
2023/06/05 03:35:40;;;;;;;8.40;3.20;;;12.30;35.70;;;;;;4969303;28;20422;-67
2023/06/05 03:38:05;;;;;;;7.30;2.95;;;12.40;1.40;;;;;;4955077;28;20457;-68
2023/06/05 03:40:31;;;;;;;8.90;2.90;;;12.40;1.00;;;;;;4955416;28;20452;-68
2023/06/05 03:42:57;;;;;;;9.57;3.30;;;12.40;39.70;;;;;;4972463;28;20505;-68
2023/06/05 03:45:25;;;;;;;8.30;2.80;;;12.40;28.10;;;;;;4975804;28;20427;-68
2023/06/05 03:47:50;;;;;;;8.00;2.88;;;12.40;29.10;;;;;;4976009;28;20457;-68
2023/06/05 03:50:16;;;;;;;7.93;2.57;;;12.40;22.80;;;;;;4975842;28;20442;-68
2023/06/05 03:52:42;;;;;;;8.00;3.05;;;12.50;1.00;;;;;;4975635;28;21086;-68
2023/06/05 03:55:09;;;;;;;7.90;2.58;;;12.50;1.00;;;;;;4978230;28;20424;-68
2023/06/05 03:57:37;;;;;;;8.75;2.90;;;12.60;1.00;;;;;;4975129;28;20436;-68
2023/06/05 04:00:05;;;;;;;9.52;2.75;;;12.50;50.70;;;;;;4975694;28;21066;-68
2023/06/05 04:02:31;;;;;;;10.02;2.90;;;12.60;82.50;;;;;;4980497;28;20503;-68
2023/06/05 04:04:56;;;;;;;6.97;2.57;;;12.60;52.80;;;;;;4982770;28;20456;-68
2023/06/05 04:07:22;;;;;;;6.70;2.40;;;12.70;2.60;;;;;;4980955;28;20438;-68
2023/06/05 04:09:47;;;;;;;7.93;2.50;;;12.80;8.30;;;;;;4974966;28;20450;-68
2023/06/05 04:12:14;;;;;;;9.07;2.90;;;12.80;1.00;;;;;;4979260;28;20407;-68
2023/06/05 04:14:40;;;;;;;7.65;2.70;;;12.90;1.00;;;;;;4975796;28;20423;-68
2023/06/05 04:17:06;;;;;;;7.03;2.70;;;13.00;1.00;;;;;;4975253;28;20423;-69
2023/06/05 04:19:31;;;;;;;7.53;3.28;;;13.00;1.00;;;;;;4973956;28;20422;-68
2023/06/05 04:21:57;;;;;;;7.53;2.85;;;13.00;1.00;;;;;;4976516;28;20433;-68
2023/06/05 04:24:25;;;;;;;7.60;2.90;;;13.10;1.00;;;;;;4970045;28;20562;-68
2023/06/05 04:26:50;;;;;;;9.90;2.87;;;13.20;1.00;;;;;;4968319;28;20463;-68
2023/06/05 04:29:16;;;;;;;8.23;2.50;;;13.30;1.00;;;;;;4972696;28;20405;-68
2023/06/05 04:31:43;;;;;;;7.30;3.00;;;13.30;1.00;;;;;;4972977;28;20468;-68
2023/06/05 04:34:09;;;;;;;6.60;2.40;;;13.40;1.00;;;;;;4970573;28;20403;-68
2023/06/05 04:36:36;;;;;;;10.40;3.17;;;13.60;1.00;;;;;;4971178;28;20488;-68
2023/06/05 04:39:03;;;;;;;7.68;2.88;;;13.70;1.00;;;;;;4973053;28;20421;-68
2023/06/05 04:41:30;;;;;;;6.93;2.40;;;13.90;1.00;;;;;;4968827;28;20404;-68
2023/06/05 04:43:57;;;;;;;8.23;3.00;;;14.20;1.00;;;;;;4969762;28;20393;-68
2023/06/05 04:46:23;;;;;;;8.23;2.60;;;14.40;1.00;;;;;;4968269;28;20435;-68
2023/06/05 04:48:49;;;;;;;6.95;2.47;;;14.60;99.90;;;;;;4968519;28;20910;-69
2023/06/05 04:51:14;;;;;;;7.73;2.90;;;14.60;99.90;;;;;;4970863;28;20418;-68
2023/06/05 04:53:41;;;;;;;7.55;3.00;;;14.90;1.00;;;;;;4970139;28;20397;-68
2023/06/05 04:56:07;;;;;;;12.90;2.78;;;15.40;99.90;;;;;;4969537;28;20958;-68
2023/06/05 04:58:33;;;;;;;7.65;2.30;;;16.40;1.00;;;;;;4968550;28;20391;-68
2023/06/05 05:01:04;;;;;;;8.23;2.47;;;17.80;1.00;;;;;;4966756;28;20506;-69
2023/06/05 05:03:31;;;;;;;9.90;2.60;;;19.30;1.00;;;;;;4967583;28;20412;-74
2023/06/05 05:05:56;;;;;;;8.70;2.50;;;20.20;1.00;;;;;;4970466;28;20428;-74
2023/06/05 05:08:22;;;;;;;8.80;2.60;;;21.00;1.00;;;;;;4971265;28;20412;-74
2023/06/05 05:10:49;;;;;;;7.23;2.40;;;22.30;99.90;;;;;;4969890;28;20435;-74
2023/06/05 05:13:15;;;;;;;8.40;3.43;;;23.50;99.90;;;;;;4974638;28;20398;-74
2023/06/05 05:15:41;;;;;;;7.50;2.97;;;24.40;99.90;;;;;;4973644;28;20406;-74
2023/06/05 05:18:07;;;;;;;7.43;2.53;;;25.50;99.90;;;;;;4967395;28;20422;-74
2023/06/05 05:20:34;;;;;;;7.30;2.10;;;26.20;1.00;;;;;;4970187;28;20415;-75
2023/06/05 05:23:01;;;;;;;8.02;2.50;;;26.70;1.00;;;;;;4975547;28;20411;-73
2023/06/05 05:25:27;;;;;;;9.40;2.80;;;;;;;;;;4974936;28;20477;-73
2023/06/05 05:27:53;;;;;;;7.43;2.70;;;26.80;99.90;;;;;;4981907;28;20976;-73
2023/06/05 05:30:19;;;;;;;7.63;2.30;;;26.30;99.90;;;;;;4980565;28;20974;-74
2023/06/05 05:32:44;;;;;;;8.03;2.70;;;26.80;99.90;;;;;;4971056;28;20442;-74
2023/06/05 05:35:10;;;;;;;7.60;2.60;;;26.70;99.90;;;;;;4963376;28;20494;-74
2023/06/05 05:37:36;;;;;;;7.43;2.50;;;27.10;99.90;;;;;;4958983;28;20905;-74
2023/06/05 05:40:03;;;;;;;9.20;2.20;;;27.30;99.90;;;;;;4979699;28;20434;-74
2023/06/05 05:42:29;;;;;;;7.25;2.60;;;26.40;99.90;;;;;;4978120;28;20400;-74
2023/06/05 05:44:54;;;;;;;7.50;2.60;;;27.20;99.90;;;;;;4975590;28;20415;-74
2023/06/05 05:47:20;;;;;;;8.67;2.53;;;27.50;99.90;;;;;;4970997;28;20415;-74
2023/06/05 05:49:46;;;;;;;6.50;2.20;;;27.70;99.90;;;;;;4971418;28;20447;-74
2023/06/05 05:52:12;;;;;;;9.60;3.10;;;27.80;99.90;;;;;;4986392;28;20502;-74
2023/06/05 05:54:40;;;;;;;7.60;2.70;;;28.80;99.90;;;;;;4977676;28;20449;-74
2023/06/05 05:57:06;;;;;;;9.10;2.80;;;29.10;99.90;;;;;;4981870;28;20454;-71
2023/06/05 05:59:32;;;;;;;8.50;2.40;;;28.40;99.90;;;;;;4974186;28;20424;-69
2023/06/05 06:01:59;;;;;;;9.83;2.77;;;28.10;99.90;;;;;;4977638;28;20513;-69
2023/06/05 06:04:24;;;;;;;6.97;2.70;;;28.90;99.90;;;;;;4975935;28;20432;-68
2023/06/05 06:06:52;;;;;;;6.50;2.40;;;29.40;99.90;;;;;;4971152;28;20420;-69
2023/06/05 06:09:18;;;;;;;7.40;3.10;;;29.90;99.90;;;;;;4973034;28;20752;-69
2023/06/05 06:11:44;;;;;;;8.90;3.00;;;30.00;99.90;;;;;;4973061;28;20451;-69
2023/06/05 06:14:10;;;;;;;7.57;2.30;;;30.00;99.90;;;;;;4977179;28;20420;-69
2023/06/05 06:16:38;;;;;;;7.70;2.70;;;30.20;99.90;;;;;;4978883;28;20420;-69
2023/06/05 06:19:04;;;;;;;8.93;2.42;;;29.20;99.90;;;;;;4981972;28;20522;-68
2023/06/05 06:21:30;;;;;;;8.05;3.00;;;29.50;99.90;;;;;;4972457;28;20412;-68
2023/06/05 06:23:57;;;;;;;7.93;2.40;;;29.00;99.90;;;;;;4972355;28;20478;-68
2023/06/05 06:26:22;;;;;;;7.43;2.47;;;29.20;99.90;;;;;;4970411;28;20515;-68
2023/06/05 06:28:48;;;;;;;7.20;2.70;;;28.80;99.90;;;;;;4986516;28;20560;-68
2023/06/05 06:31:14;;;;;;;12.20;2.40;;;28.50;99.90;;;;;;4971225;28;20417;-69
2023/06/05 06:33:40;;;;;;;7.60;2.60;;;28.60;99.90;;;;;;4972855;28;20789;-69
2023/06/05 06:36:06;;;;;;;8.45;2.50;;;28.60;99.90;;;;;;4973145;28;20410;-68
2023/06/05 06:38:32;;;;;;;7.00;2.47;;;27.90;99.90;;;;;;4968076;28;20491;-68
2023/06/05 06:40:58;;;;;;;8.23;2.55;;;27.90;99.90;;;;;;4972624;28;20400;-68
2023/06/05 06:43:24;;;;;;;8.10;2.60;;;29.10;99.90;;;;;;4972482;28;20392;-68
2023/06/05 06:45:50;;;;;;;7.90;2.60;;;29.10;99.90;;;;;;4972087;28;20447;-68
2023/06/05 06:48:16;;;;;;;7.70;2.50;;;28.80;99.90;;;;;;4971689;28;20863;-68
2023/06/05 06:50:42;;;;;;;8.25;2.22;;;28.30;99.90;;;;;;4971841;28;20478;-68
2023/06/05 06:53:08;;;;;;;7.30;2.28;;;27.80;99.90;;;;;;4971631;28;20388;-69
2023/06/05 06:55:33;;;;;;;8.93;2.70;;;28.60;99.90;;;;;;4972446;28;20422;-69
2023/06/05 06:57:59;;;;;;;8.90;2.47;;;29.40;99.90;;;;;;4971219;28;20411;-68
2023/06/05 07:00:25;;;;;;;8.10;2.50;;;30.00;99.90;;;;;;4971211;28;20467;-69
2023/06/05 07:02:51;;;;;;;7.53;2.40;;;30.40;99.90;;;;;;4989062;28;20399;-68
2023/06/05 07:05:19;;;;;;;7.90;3.00;;;30.40;99.90;;;;;;4986701;28;20418;-68
2023/06/05 07:07:45;;;;;;;9.25;2.85;;;30.90;99.90;;;;;;4971968;28;20458;-68
2023/06/05 07:10:11;;;;;;;6.93;2.37;;;31.40;99.90;;;;;;4969253;28;20437;-68
2023/06/05 07:12:36;;;;;;;10.20;2.70;;;31.50;99.90;;;;;;4969608;28;20420;-68
2023/06/05 07:15:02;;;;;;;10.10;3.10;;;31.30;99.90;;;;;;4970640;28;20427;-68
2023/06/05 07:17:29;;;;;;;7.35;3.28;;;31.20;99.90;;;;;;4972746;28;20951;-68
2023/06/05 07:19:58;;;;;;;7.32;2.70;;;30.90;99.90;;;;;;4984339;28;20526;-68
2023/06/05 07:22:28;;;;;;;8.70;3.40;;;31.50;99.90;;;;;;4969918;28;20421;-69
2023/06/05 07:24:54;;;;;;;8.23;2.72;;;32.70;99.90;;;;;;4970284;28;20477;-68
2023/06/05 07:27:20;;;;;;;7.35;3.10;;;32.20;99.90;;;;;;4961704;28;20913;-69
2023/06/05 07:29:46;;;;;;;6.65;2.63;;;31.70;99.90;;;;;;4967699;28;20400;-69
2023/06/05 07:32:12;;;;;;;9.32;2.80;;;32.10;99.90;;;;;;4962502;28;20414;-68
2023/06/05 07:34:39;;;;;;;7.15;2.90;;;32.10;99.90;;;;;;4963275;28;20948;-68
2023/06/05 07:37:07;;;;;;;8.15;3.28;;;31.90;99.90;;;;;;4970095;28;20474;-69
2023/06/05 07:39:33;;;;;;;7.07;2.65;;;31.50;99.90;;;;;;4973438;28;20436;-68
2023/06/05 07:41:59;;;;;;;7.90;3.70;;;31.60;99.90;;;;;;4955872;28;20415;-69
2023/06/05 07:44:25;;;;;;;8.40;3.30;;;32.50;99.90;;;;;;4972459;28;20863;-69
2023/06/05 07:46:51;;;;;;;9.03;3.60;;;33.80;99.90;;;;;;4966715;28;20435;-69
2023/06/05 07:49:17;;;;;;;8.00;3.20;;;34.10;99.90;;;;;;4971304;28;20570;-69
2023/06/05 07:51:43;;;;;;;9.35;3.70;;;34.00;99.90;;;;;;4971298;28;20969;-69
2023/06/05 07:54:11;;;;;;;9.30;3.90;;;35.00;99.90;;;;;;4967184;28;20642;-69
2023/06/05 07:56:38;;;;;;;7.05;3.03;;;35.20;99.90;;;;;;4970475;28;20392;-69
2023/06/05 07:59:05;;;;;;;10.02;3.88;;;35.30;99.90;;;;;;4970820;28;20752;-69
2023/06/05 08:01:31;;;;;;;9.38;3.53;;;35.60;99.90;;;;;;4974724;28;20419;-69
2023/06/05 08:03:57;;;;;;;9.10;3.67;;;34.90;99.90;;;;;;4972203;28;20392;-69
2023/06/05 08:06:27;;;;;;;9.40;3.90;;;35.20;99.90;;;;;;4970114;28;20427;-69
2023/06/05 08:08:53;;;;;;;8.40;3.57;;;34.80;99.90;;;;;;4952842;28;20412;-69
2023/06/05 08:11:18;;;;;;;11.10;3.57;;;34.60;99.90;;;;;;4970535;28;20459;-69
2023/06/05 08:13:45;;;;;;;8.60;3.50;;;33.90;99.90;;;;;;4971241;28;20407;-69
2023/06/05 08:16:10;;;;;;;9.15;3.40;;;33.70;99.90;;;;;;4970332;28;20408;-69
2023/06/05 08:18:36;;;;;;;10.75;3.10;;;34.00;99.90;;;;;;4971668;28;20416;-69
2023/06/05 08:21:02;;;;;;;10.97;3.43;;;34.00;99.90;;;;;;4986248;28;20406;-69
2023/06/05 08:23:27;;;;;;;9.60;3.80;;;34.00;99.90;;;;;;4973406;28;20443;-69
2023/06/05 08:25:53;;;;;;;9.57;3.50;;;34.10;99.90;;;;;;4969812;28;20482;-69
2023/06/05 08:28:19;;;;;;;8.38;3.95;;;33.70;99.90;;;;;;4970334;28;20402;-69
2023/06/05 08:30:45;;;;;;;9.32;4.50;;;33.20;99.90;;;;;;4969276;28;20503;-69
2023/06/05 08:33:10;;;;;;;8.40;3.50;;;33.10;99.90;;;;;;4969298;28;20416;-69
2023/06/05 08:35:36;;;;;;;9.50;3.93;;;32.90;99.90;;;;;;4968353;28;20408;-69
2023/06/05 08:38:03;;;;;;;9.30;3.92;;;31.80;99.90;;;;;;4970539;28;20432;-69
2023/06/05 08:40:29;;;;;;;9.88;4.10;;;30.30;99.90;;;;;;4961438;28;20410;-69
2023/06/05 08:42:55;;;;;;;9.60;4.13;;;29.70;99.90;;;;;;4982037;28;20428;-69
2023/06/05 08:45:22;;;;;;;9.23;3.20;;;30.50;99.90;;;;;;4987804;28;20466;-69
2023/06/05 08:47:54;;;;;;;10.50;3.42;;;31.70;1.00;;;;;;4971946;28;20431;-69
2023/06/05 08:50:19;;;;;;;11.13;3.50;;;32.40;1.00;;;;;;4980357;28;20443;-69
2023/06/05 08:52:46;;;;;;;9.00;3.70;;;33.00;1.00;;;;;;4969640;28;21017;-69
2023/06/05 08:55:12;;;;;;;9.60;3.88;;;33.70;1.00;;;;;;4967744;28;20452;-68
2023/06/05 08:57:41;;;;;;;9.50;4.28;;;34.30;1.00;;;;;;4973992;28;20441;-69
2023/06/05 09:00:12;;;;;;;9.67;3.93;;;34.10;1.00;;;;;;4967424;28;20402;-68
2023/06/05 09:02:43;;;;;;;8.32;4.07;;;34.60;1.00;;;;;;4962053;28;20408;-68
2023/06/05 09:05:09;;;;;;;9.93;4.50;;;34.80;1.00;;;;;;4989528;28;20490;-68
2023/06/05 09:07:36;;;;;;;9.00;4.00;;;35.40;1.00;;;;;;4982211;28;20430;-69
2023/06/05 09:10:02;;;;;;;9.90;4.30;;;35.60;1.00;;;;;;4975717;28;20474;-70
2023/06/05 09:12:27;;;;;;;9.53;3.80;;;35.80;1.00;;;;;;4975392;28;20408;-69
2023/06/05 09:14:53;;;;;;;8.82;4.07;;;34.80;1.00;;;;;;4967292;28;20974;-69
2023/06/05 09:17:22;;;;;;;8.97;4.70;;;34.40;1.00;;;;;;4980000;28;20415;-70
2023/06/05 09:19:48;;;;;;;20.73;16.40;;;34.20;1.00;;;;;;4970056;28;20448;-70
2023/06/05 09:22:15;;;;;;;8.30;4.60;;;34.30;1.00;;;;;;4974301;28;20412;-70
2023/06/05 09:24:42;;;;;;;10.60;5.00;;;;;;;;;;4973190;28;20396;-69
2023/06/05 09:27:10;;;;;;;11.37;5.30;;;;;;;;;;4973150;28;20416;-69
2023/06/05 09:29:39;;;;;;;14.50;5.60;;;;;;;;;;4972157;28;20400;-69
2023/06/05 09:32:07;;;;;;;10.38;4.80;;;35.90;56.40;;;;;;4987177;28;20405;-69
2023/06/05 09:34:37;;;;;;;9.45;4.63;;;34.90;1.00;;;;;;4993238;28;20401;-69
2023/06/05 09:37:11;;;;;;;11.27;4.80;;;34.30;1.00;;;;;;4993276;28;20413;-69
2023/06/05 09:39:43;;;;;;;9.97;4.70;;;34.50;1.00;;;;;;4972530;28;20458;-69
2023/06/05 09:42:08;;;;;;;11.10;4.78;;;34.80;1.00;;;;;;4962639;28;20415;-69
2023/06/05 09:44:35;;;;;;;9.77;4.90;;;35.30;1.00;;;;;;4971321;28;20429;-69
2023/06/05 09:47:00;;;;;;;10.02;4.80;;;34.90;1.00;;;;;;4967799;28;20431;-69
2023/06/05 09:49:46;;;;;;;8.50;4.70;;;34.70;1.00;;;;;;4972275;28;20400;-69
2023/06/05 09:52:13;;;;;;;9.80;4.30;;;35.00;1.00;;;;;;4948053;29;20425;-70
2023/06/05 09:54:42;;;;;;;8.93;4.67;;;35.10;1.00;;;;;;4969274;28;20460;-70
2023/06/05 09:57:09;;;;;;;11.15;4.68;;;34.90;1.00;;;;;;4987796;28;20416;-69
2023/06/05 09:59:45;;;;;;;9.05;4.45;;;35.00;1.00;;;;;;4975184;28;20405;-69
2023/06/05 10:02:16;;;;;;;8.50;4.45;;;35.20;1.00;;;;;;4991497;28;20849;-69
2023/06/05 10:04:47;;;;;;;9.13;4.20;;;35.00;1.00;;;;;;4978180;28;20514;-69
2023/06/05 10:07:15;;;;;;;9.93;4.60;;;34.80;1.00;;;;;;4972148;28;20432;-69
2023/06/05 10:09:41;;;;;;;10.00;5.10;;;34.00;99.90;;;;;;4971572;28;20396;-69
2023/06/05 10:12:08;;;;;;;9.20;4.70;;;32.90;99.90;;;;;;4971966;28;20495;-69
2023/06/05 10:14:40;;;;;;;10.15;5.20;;;33.50;99.90;;;;;;4968990;28;20407;-69
2023/06/05 10:17:06;;;;;;;9.57;4.78;;;33.70;99.90;;;;;;4970956;28;20926;-69
2023/06/05 10:19:32;;;;;;;9.95;3.97;;;33.00;99.90;;;;;;4964185;28;20410;-69
2023/06/05 10:21:58;;;;;;;9.37;4.20;;;32.10;99.90;;;;;;4953022;29;20464;-69
2023/06/05 10:24:31;;;;;;;11.10;4.20;;;31.60;99.90;;;;;;4965283;28;20392;-69
2023/06/05 10:27:16;;;;;;;9.35;3.78;;;31.80;99.90;;;;;;4972359;28;20424;-70
2023/06/05 10:30:12;;;;;;;9.55;3.90;;;31.40;99.90;;;;;;4968529;28;20934;-69
2023/06/05 10:33:17;;;;;;;9.73;3.50;;;31.00;99.90;;;;;;4964576;28;20422;-69
2023/06/05 10:35:52;;;;;;;10.90;3.83;;;30.90;99.90;;;;;;4972613;28;20460;-69
2023/06/05 10:38:20;;;;;;;8.73;3.58;;;30.80;99.90;;;;;;4975871;28;20482;-69
2023/06/05 10:40:54;;;;;;;8.98;3.25;;;31.20;99.90;;;;;;4998400;28;20418;-69
2023/06/05 10:43:35;;;;;;;8.50;3.80;;;31.30;99.90;;;;;;4985416;28;20787;-69
2023/06/05 10:46:30;;;;;;;9.23;3.60;;;31.20;99.90;;;;;;4993812;28;20395;-69
2023/06/05 10:49:08;;;;;;;8.50;3.60;;;31.20;99.90;;;;;;4975447;28;20521;-69
2023/06/05 10:51:45;;;;;;;10.00;4.05;;;30.70;99.90;;;;;;4989561;28;20441;-69
2023/06/05 10:54:23;;;;;;;8.40;3.30;;;30.40;99.90;;;;;;4985885;28;20680;-69
2023/06/05 10:56:52;;;;;;;7.37;3.00;;;29.90;99.90;;;;;;4981370;28;20843;-69
2023/06/05 10:59:22;;;;;;;8.35;3.20;;;28.80;99.90;;;;;;4972545;28;20419;-69
2023/06/05 11:02:16;;;;;;;8.90;3.40;;;28.50;99.90;;;;;;4971161;28;20416;-69
2023/06/05 11:04:46;;;;;;;7.60;2.88;;;28.90;99.90;;;;;;4911242;29;21095;-69
2023/06/05 11:07:20;;;;;;;8.35;3.60;;;29.10;99.90;;;;;;4971345;28;20423;-70
2023/06/05 11:10:07;;;;;;;8.50;3.30;;;29.60;99.90;;;;;;4968579;28;20951;-69
2023/06/05 11:12:35;;;;;;;7.55;2.72;;;30.40;99.90;;;;;;4969627;28;20898;-69
2023/06/05 11:15:06;;;;;;;7.35;2.90;;;30.30;99.90;;;;;;4971892;28;20391;-69
2023/06/05 11:17:38;;;;;;;7.80;2.60;;;29.80;99.90;;;;;;4971420;28;20402;-69
2023/06/05 11:20:07;;;;;;;7.80;2.97;;;29.60;99.90;;;;;;4971125;28;20407;-69
2023/06/05 11:22:32;;;;;;;9.50;3.25;;;29.00;99.90;;;;;;4969764;28;20430;-69
2023/06/05 11:25:16;;;;;;;8.38;3.33;;;29.00;99.90;;;;;;4976264;28;20398;-69
2023/06/05 11:27:43;;;;;;;8.70;3.20;;;29.20;99.90;;;;;;4973526;28;20777;-69
2023/06/05 11:30:16;;;;;;;9.40;3.40;;;29.50;99.90;;;;;;4971203;28;20400;-69
2023/06/05 11:32:43;;;;;;;7.60;2.65;;;29.90;99.90;;;;;;4969384;28;20751;-69
2023/06/05 11:35:09;;;;;;;8.30;3.72;;;29.60;99.90;;;;;;4969259;28;20437;-69
2023/06/05 11:37:35;;;;;;;7.47;2.80;;;29.40;99.90;;;;;;4986930;28;20515;-69
2023/06/05 11:40:09;;;;;;;11.80;3.90;;;29.60;99.90;;;;;;4972600;28;20736;-69
2023/06/05 11:42:39;;;;;;;9.23;3.38;;;29.40;99.90;;;;;;4968522;28;20412;-69
2023/06/05 11:45:11;;;;;;;8.07;3.40;;;28.60;99.90;;;;;;4971485;28;20388;-69
2023/06/05 11:47:37;;;;;;;7.80;3.60;;;28.70;99.90;;;;;;4969419;28;20424;-68
2023/06/05 11:50:13;;;;;;;10.20;3.13;;;28.70;99.90;;;;;;4970865;28;20438;-69
2023/06/05 11:52:40;;;;;;;8.60;3.00;;;29.20;99.90;;;;;;4978921;28;20413;-69
2023/06/05 11:55:19;;;;;;;8.00;3.08;;;29.60;99.90;;;;;;4978201;28;20502;-69
2023/06/05 11:57:49;;;;;;;8.30;3.35;;;29.40;99.90;;;;;;4976687;28;20406;-69
2023/06/05 12:00:22;;;;;;;8.50;2.90;;;29.20;99.90;;;;;;4964587;28;20503;-69
2023/06/05 12:02:48;;;;;;;8.13;3.55;;;29.20;99.90;;;;;;4950673;29;20449;-70
2023/06/05 12:05:14;;;;;;;7.70;3.17;;;28.90;99.90;;;;;;4972133;28;20416;-69
2023/06/05 12:07:39;;;;;;;9.77;3.60;;;28.50;99.90;;;;;;4993628;28;21212;-69
2023/06/05 12:10:07;;;;;;;8.00;3.70;;;28.70;99.90;;;;;;4978785;28;20440;-69
2023/06/05 12:12:33;;;;;;;8.77;3.20;;;29.10;99.90;;;;;;4969294;28;20404;-68
2023/06/05 12:15:14;;;;;;;7.38;2.97;;;29.20;99.90;;;;;;4970598;28;20476;-68
2023/06/05 12:17:40;;;;;;;8.10;3.40;;;29.10;99.90;;;;;;4965465;28;20419;-68
2023/06/05 12:20:07;;;;;;;8.18;3.50;;;28.90;99.90;;;;;;4970298;28;20760;-68
2023/06/05 12:22:35;;;;;;;8.50;3.60;;;29.00;99.90;;;;;;4971298;28;20890;-68
2023/06/05 12:25:21;;;;;;;8.60;2.90;;;28.90;99.90;;;;;;4985078;28;20402;-68
2023/06/05 12:27:48;;;;;;;8.60;3.08;;;29.50;99.90;;;;;;4980222;28;20514;-69
2023/06/05 12:30:16;;;;;;;8.93;3.40;;;29.20;99.90;;;;;;4969933;28;20416;-68
2023/06/05 12:32:43;;;;;;;7.80;2.95;;;29.20;99.90;;;;;;4969323;28;20549;-68
2023/06/05 12:35:22;;;;;;;7.85;3.30;;;29.00;99.90;;;;;;4966524;28;20771;-68
2023/06/05 12:37:49;;;;;;;8.43;3.70;;;28.40;99.90;;;;;;4978357;28;20406;-69
2023/06/05 12:40:20;;;;;;;10.27;4.03;;;28.50;99.90;;;;;;4961315;28;20441;-69
2023/06/05 12:42:46;;;;;;;9.60;3.30;;;28.90;99.90;;;;;;4962868;28;20779;-69
2023/06/05 12:45:12;;;;;;;9.50;3.50;;;29.40;99.90;;;;;;4944005;28;20515;-69
2023/06/05 12:47:38;;;;;;;7.82;3.90;;;30.20;99.90;;;;;;4959805;28;20540;-69
2023/06/05 12:50:05;;;;;;;8.53;3.60;;;30.50;99.90;;;;;;4985952;28;20422;-69
2023/06/05 12:52:31;;;;;;;10.43;3.90;;;30.30;99.90;;;;;;4970694;28;20869;-68
2023/06/05 12:54:57;;;;;;;9.80;3.45;;;29.70;99.90;;;;;;4966417;28;20500;-68